David L. Griggs — WDE5778 — position and weather

sailwx.info

Track history (hours):
 
Tides and Currents Weather Stations Pressure Air Temp Water Temp Dewpoint Dewpoint Depression Visibility Wind Speed Wind Dir Waves Ship Positions

David L. Griggs

Owner: Marquette Transportation Company, LLC, Paducah, KY. More information available from US FCC via Universal Licensing System and Coast Guard Vessel Documentation Center.

Last reported at 2017-Jun-20 15:02 UTC. Time now 2017-Aug-20 13:19 UTC.
Position N 31°54' W 091°12'.
Warning: this ship's position is months out of date.

Length 50 m; draft 3.3 m.

Type: Tow > 200 m length. MMSI: 367371510.

Date/timePositionNaut miles runAvg speedWind from/ knotsBaromVisibWave heightAir tempDewpointWater temp
2017-Jun-20 15:02N 31°54' W 091°12'410.4
2017-Jun-20 14:38N 31°58' W 091°11'6 9.5
2017-Jun-20 14:00N 32°00' W 091°05'5 9.2
2017-Jun-20 13:30N 32°05' W 091°04'3 6.3
2017-Jun-20 12:59N 32°08' W 091°05'4 8.6
2017-Jun-20 12:30N 32°09' W 091°00'510.8
2017-Jun-20 12:00N 32°14' W 090°59'510.4
2017-Jun-20 11:30N 32°18' W 090°55'3 6.8
2017-Jun-20 11:00N 32°21' W 090°57'4 7.1
2017-Jun-20 10:30N 32°24' W 090°59'5 9.6
2017-Jun-20 10:00N 32°27' W 091°04'5 9.2
2017-Jun-20 09:30N 32°31' W 091°06'4 9.1
2017-Jun-20 09:00N 32°35' W 091°08'4 8.8
2017-Jun-20 08:30N 32°40' W 091°08'6 9.7
2017-Jun-20 07:55N 32°43' W 091°03'  
2017-Jun-13 18:57N 40°46' W 091°06'3 6.9
2017-Jun-13 18:30N 40°49' W 091°06'3 6.5
2017-Jun-13 18:00N 40°51' W 091°03'2 4.3
2017-Jun-13 17:30N 40°53' W 091°01'0 0.1
2017-Jun-13 17:00N 40°53' W 091°01'0 0.2
2017-Jun-13 16:29N 40°53' W 091°01'0 0.2
2017-Jun-13 16:00N 40°53' W 091°01'0 0.7
2017-Jun-13 15:30N 40°53' W 091°01'0 0.0
2017-Jun-13 15:00N 40°53' W 091°01'0 0.0
2017-Jun-13 14:00N 40°53' W 091°01'1 2.0
2017-Jun-13 13:30N 40°54' W 091°00'3 5.9
2017-Jun-13 13:00N 40°56' W 090°57'4 7.4
2017-Jun-13 12:30N 40°60' W 090°57'4 7.7
2017-Jun-13 11:56N 41°04' W 090°57'  
Track history (hours):
 
Tides and Currents Weather Stations Pressure Air Temp Water Temp Dewpoint Dewpoint Depression Visibility Wind Speed Wind Dir Waves Ship Positions

David L. Griggs

Owner: Marquette Transportation Company, LLC, Paducah, KY. More information available from US FCC via Universal Licensing System and Coast Guard Vessel Documentation Center.

Last reported at 2017-Jun-20 15:02 UTC. Time now 2017-Aug-20 13:19 UTC.
Position N 31°54' W 091°12'.
Warning: this ship's position is months out of date.

Length 50 m; draft 3.3 m.

Type: Tow > 200 m length. MMSI: 367371510.

Date/timePositionNaut miles runAvg speedWind from/ knotsBaromVisibWave heightAir tempDewpointWater temp
2017-Jun-20 15:02N 31°54' W 091°12'410.4
2017-Jun-20 14:38N 31°58' W 091°11'6 9.5
2017-Jun-20 14:00N 32°00' W 091°05'5 9.2
2017-Jun-20 13:30N 32°05' W 091°04'3 6.3
2017-Jun-20 12:59N 32°08' W 091°05'4 8.6
2017-Jun-20 12:30N 32°09' W 091°00'510.8
2017-Jun-20 12:00N 32°14' W 090°59'510.4
2017-Jun-20 11:30N 32°18' W 090°55'3 6.8
2017-Jun-20 11:00N 32°21' W 090°57'4 7.1
2017-Jun-20 10:30N 32°24' W 090°59'5 9.6
2017-Jun-20 10:00N 32°27' W 091°04'5 9.2
2017-Jun-20 09:30N 32°31' W 091°06'4 9.1
2017-Jun-20 09:00N 32°35' W 091°08'4 8.8
2017-Jun-20 08:30N 32°40' W 091°08'6 9.7
2017-Jun-20 07:55N 32°43' W 091°03'  
2017-Jun-13 18:57N 40°46' W 091°06'3 6.9
2017-Jun-13 18:30N 40°49' W 091°06'3 6.5
2017-Jun-13 18:00N 40°51' W 091°03'2 4.3
2017-Jun-13 17:30N 40°53' W 091°01'0 0.1
2017-Jun-13 17:00N 40°53' W 091°01'0 0.2
2017-Jun-13 16:29N 40°53' W 091°01'0 0.2
2017-Jun-13 16:00N 40°53' W 091°01'0 0.7
2017-Jun-13 15:30N 40°53' W 091°01'0 0.0
2017-Jun-13 15:00N 40°53' W 091°01'0 0.0
2017-Jun-13 14:00N 40°53' W 091°01'1 2.0
2017-Jun-13 13:30N 40°54' W 091°00'3 5.9
2017-Jun-13 13:00N 40°56' W 090°57'4 7.4
2017-Jun-13 12:30N 40°60' W 090°57'4 7.7
2017-Jun-13 11:56N 41°04' W 090°57'  

Dump ship's entire track history